createdAt,value
2023-02-16T00:01:24.448Z,54.27
2023-02-16T00:03:52.203Z,50.70
2023-02-16T00:06:19.365Z,47.97
2023-02-16T00:08:51.512Z,52.10
2023-02-16T00:11:44.523Z,48.60
2023-02-16T00:14:12.328Z,42.03
2023-02-16T00:16:42.467Z,49.10
2023-02-16T00:19:35.666Z,52.50
2023-02-16T00:22:07.035Z,53.07
2023-02-16T00:24:34.386Z,52.70
2023-02-16T00:27:01.503Z,44.10
2023-02-16T00:29:32.981Z,45.60
2023-02-16T00:32:02.297Z,55.50
2023-02-16T00:34:33.651Z,51.77
2023-02-16T00:37:03.593Z,46.23
2023-02-16T00:39:30.383Z,51.63
2023-02-16T00:42:04.258Z,52.00
2023-02-16T00:44:34.897Z,41.77
2023-02-16T00:47:08.942Z,45.60
2023-02-16T00:49:36.027Z,58.63
2023-02-16T00:52:33.240Z,45.93
2023-02-16T00:55:01.647Z,43.30
2023-02-16T00:57:32.235Z,46.53
2023-02-16T01:00:23.122Z,47.03
2023-02-16T01:02:51.883Z,43.70
2023-02-16T01:05:19.167Z,41.30
2023-02-16T01:08:04.729Z,54.50
2023-02-16T01:10:51.033Z,54.03
2023-02-16T01:13:17.866Z,47.37
2023-02-16T01:15:45.308Z,39.57
2023-02-16T01:18:15.735Z,50.77
2023-02-16T01:20:42.706Z,41.87
2023-02-16T01:23:09.668Z,45.33
2023-02-16T01:25:36.957Z,49.33
2023-02-16T01:28:04.292Z,43.80
2023-02-16T01:30:31.023Z,42.70
2023-02-16T01:32:57.742Z,41.40
2023-02-16T01:35:30.815Z,46.83
2023-02-16T01:37:57.570Z,46.27
2023-02-16T01:40:41.389Z,45.53
2023-02-16T01:43:26.446Z,44.00
2023-02-16T01:46:03.559Z,47.37
2023-02-16T01:48:32.019Z,47.40
2023-02-16T01:51:24.777Z,47.43
2023-02-16T01:54:31.194Z,41.23
2023-02-16T01:57:24.895Z,50.00
2023-02-16T01:59:54.414Z,52.27
2023-02-16T02:02:26.664Z,50.87
2023-02-16T02:05:15.458Z,46.27
2023-02-16T02:08:04.473Z,40.33
2023-02-16T02:10:45.154Z,47.27
2023-02-16T02:13:33.676Z,45.73
2023-02-16T02:16:04.290Z,50.70
2023-02-16T02:18:31.031Z,46.40
2023-02-16T02:21:42.042Z,47.20
2023-02-16T02:24:36.749Z,47.27
2023-02-16T02:27:23.457Z,49.03
2023-02-16T02:30:04.971Z,49.03
2023-02-16T02:32:52.609Z,42.90
2023-02-16T02:35:56.362Z,43.63
2023-02-16T02:38:51.112Z,42.77
2023-02-16T02:41:49.203Z,53.80
2023-02-16T02:44:20.288Z,44.90
2023-02-16T02:46:47.288Z,45.00
2023-02-16T02:49:14.010Z,53.80
2023-02-16T02:51:40.792Z,49.00
2023-02-16T02:54:28.593Z,50.00
2023-02-16T02:57:19.270Z,48.90
2023-02-16T03:00:35.805Z,41.57
2023-02-16T03:03:20.880Z,48.73
2023-02-16T03:06:01.534Z,45.50
2023-02-16T03:08:31.908Z,49.17
2023-02-16T03:11:26.392Z,52.70
2023-02-16T03:14:19.489Z,48.70
2023-02-16T03:17:10.152Z,42.13
2023-02-16T03:19:58.203Z,42.87
2023-02-16T03:22:44.258Z,46.97
2023-02-16T03:25:29.437Z,39.13
2023-02-16T03:28:17.581Z,41.53
2023-02-16T03:30:46.782Z,40.67
2023-02-16T03:36:07.928Z,44.57
2023-02-16T03:38:34.904Z,45.47
2023-02-16T03:41:02.269Z,38.90
2023-02-16T03:43:29.405Z,48.83
2023-02-16T03:45:56.287Z,47.07
2023-02-16T03:48:23.064Z,44.80
2023-02-16T03:50:49.857Z,39.83
2023-02-16T03:53:18.300Z,39.73
2023-02-16T03:55:47.600Z,42.20
2023-02-16T03:58:17.620Z,35.83
2023-02-16T04:00:44.752Z,41.70
2023-02-16T04:03:12.020Z,55.17
2023-02-16T04:05:38.922Z,48.33
2023-02-16T04:08:06.936Z,45.50
2023-02-16T04:10:34.052Z,44.57
2023-02-16T04:13:00.854Z,42.37
2023-02-16T04:15:29.262Z,47.43
2023-02-16T04:17:56.087Z,43.17
2023-02-16T04:20:25.745Z,47.07
2023-02-16T04:22:53.177Z,42.23
2023-02-16T04:25:20.852Z,48.03
2023-02-16T04:27:50.326Z,43.00
2023-02-16T04:30:22.488Z,39.73
2023-02-16T04:32:49.852Z,42.17
2023-02-16T04:35:17.425Z,43.20
2023-02-16T04:37:44.298Z,42.30
2023-02-16T04:40:17.508Z,43.63
2023-02-16T04:42:45.352Z,42.47
2023-02-16T04:45:13.024Z,44.43
2023-02-16T04:47:39.808Z,43.83
2023-02-16T04:50:07.245Z,43.70
2023-02-16T04:52:34.398Z,43.70
2023-02-16T04:55:01.184Z,46.53
2023-02-16T04:57:28.241Z,45.97
2023-02-16T04:59:55.312Z,46.97
2023-02-16T05:02:22.006Z,46.30
2023-02-16T05:04:48.770Z,43.87
2023-02-16T05:07:15.566Z,41.40
2023-02-16T05:09:42.324Z,41.73
2023-02-16T05:12:29.825Z,42.53
2023-02-16T05:14:56.568Z,40.00
2023-02-16T05:17:25.499Z,46.80
2023-02-16T05:19:57.937Z,38.77
2023-02-16T05:22:25.679Z,41.60
2023-02-16T05:24:52.536Z,37.20
2023-02-16T05:27:21.986Z,41.93
2023-02-16T05:29:49.378Z,38.03
2023-02-16T05:32:16.905Z,41.63
2023-02-16T05:34:44.971Z,42.13
2023-02-16T05:37:12.998Z,40.80
2023-02-16T05:39:39.812Z,49.07
2023-02-16T05:42:06.639Z,46.70
2023-02-16T05:44:33.432Z,47.63
2023-02-16T05:47:00.228Z,42.30
2023-02-16T05:49:26.978Z,35.87
2023-02-16T05:51:53.797Z,42.40
2023-02-16T05:54:20.537Z,43.73
2023-02-16T05:56:49.455Z,45.70
2023-02-16T05:59:16.887Z,39.30
2023-02-16T06:01:44.642Z,38.97
2023-02-16T06:04:14.879Z,42.33
2023-02-16T06:09:21.568Z,40.87
2023-02-16T06:11:48.256Z,40.17
2023-02-16T06:14:20.150Z,42.20
2023-02-16T06:16:54.044Z,42.97
2023-02-16T06:19:20.932Z,47.30
2023-02-16T06:21:48.176Z,45.73
2023-02-16T06:24:15.499Z,43.10
2023-02-16T06:26:42.456Z,39.57
2023-02-16T06:29:09.729Z,41.13
2023-02-16T06:31:37.147Z,35.57
2023-02-16T06:34:04.519Z,42.20
2023-02-16T06:36:31.431Z,37.30
2023-02-16T06:38:58.241Z,41.60
2023-02-16T06:41:31.491Z,36.43
2023-02-16T06:44:03.257Z,37.47
2023-02-16T06:46:30.089Z,40.73
2023-02-16T06:48:57.073Z,38.27
2023-02-16T06:51:24.085Z,35.20
2023-02-16T06:53:50.849Z,36.53
2023-02-16T06:56:17.753Z,45.17
2023-02-16T06:58:44.541Z,37.10
2023-02-16T07:01:11.521Z,32.50
2023-02-16T07:03:38.477Z,35.60
2023-02-16T07:06:05.826Z,33.03
2023-02-16T07:08:32.633Z,34.50
2023-02-16T07:10:59.327Z,34.07
2023-02-16T07:13:26.029Z,38.43
2023-02-16T07:15:52.802Z,37.47
2023-02-16T07:18:19.532Z,39.47
2023-02-16T07:20:47.312Z,35.90
2023-02-16T07:23:14.016Z,35.43
2023-02-16T07:25:40.815Z,37.97
2023-02-16T07:28:07.832Z,37.37
2023-02-16T07:30:35.611Z,33.70
2023-02-16T07:33:02.680Z,36.70
2023-02-16T07:35:29.694Z,38.27
2023-02-16T07:37:56.424Z,35.83
2023-02-16T07:40:23.234Z,34.40
2023-02-16T07:42:49.975Z,36.53
2023-02-16T07:45:16.808Z,33.57
2023-02-16T07:47:43.542Z,37.90
2023-02-16T07:50:10.604Z,44.30
2023-02-16T07:52:37.439Z,35.60
2023-02-16T07:55:05.281Z,34.93
2023-02-16T07:57:32.035Z,32.83
2023-02-16T07:59:58.787Z,36.23
2023-02-16T08:02:33.196Z,34.40
2023-02-16T08:05:00.474Z,36.13
2023-02-16T08:07:27.796Z,48.07
2023-02-16T08:09:54.555Z,32.63
2023-02-16T08:12:22.010Z,42.40
2023-02-16T08:14:50.610Z,38.00
2023-02-16T08:28:14.822Z,31.37
2023-02-16T08:38:43.323Z,27.93
2023-02-16T08:41:10.093Z,27.47
2023-02-16T08:43:36.799Z,29.37
2023-02-16T08:46:03.849Z,30.40
2023-02-16T08:48:35.411Z,35.20
2023-02-16T08:51:03.323Z,31.63
2023-02-16T08:53:33.276Z,27.50
2023-02-16T08:56:03.306Z,31.27
2023-02-16T08:58:31.166Z,26.97
2023-02-16T09:00:58.385Z,32.33
2023-02-16T09:03:25.358Z,27.00
2023-02-16T09:05:53.129Z,32.43
2023-02-16T09:08:19.889Z,28.50
2023-02-16T09:10:46.711Z,29.93
2023-02-16T09:13:15.126Z,24.70
2023-02-16T09:15:43.635Z,29.77
2023-02-16T09:18:14.631Z,25.43
2023-02-16T09:20:44.910Z,24.00
2023-02-16T09:23:13.544Z,25.27
2023-02-16T09:25:41.550Z,24.00
2023-02-16T09:28:09.538Z,25.87
2023-02-16T09:30:38.670Z,27.27
2023-02-16T09:33:05.927Z,27.37
2023-02-16T09:35:32.749Z,25.00
2023-02-16T09:37:59.439Z,30.10
2023-02-16T09:40:26.366Z,24.63
2023-02-16T09:43:29.178Z,31.57
2023-02-16T09:45:58.899Z,28.93
2023-02-16T09:48:45.480Z,34.33
2023-02-16T09:51:33.695Z,25.10
2023-02-16T09:54:24.874Z,25.53
2023-02-16T09:57:00.539Z,27.70
2023-02-16T09:59:56.147Z,28.30
2023-02-16T10:02:51.038Z,28.47
2023-02-16T10:05:41.420Z,24.97
2023-02-16T10:08:15.072Z,27.23
2023-02-16T10:11:30.739Z,25.87
2023-02-16T10:14:04.938Z,27.50
2023-02-16T10:16:39.900Z,33.80
2023-02-16T10:19:19.729Z,27.50
2023-02-16T10:21:51.392Z,32.17
2023-02-16T10:24:18.608Z,29.80
2023-02-16T10:26:58.181Z,33.70
2023-02-16T10:29:26.984Z,37.70
2023-02-16T10:32:05.363Z,27.77
2023-02-16T10:35:04.617Z,26.87
2023-02-16T10:37:55.569Z,29.57
2023-02-16T10:40:55.092Z,29.37
2023-02-16T10:43:25.662Z,27.27
2023-02-16T10:45:54.429Z,27.03
2023-02-16T10:48:22.816Z,31.60
2023-02-16T10:50:58.750Z,27.23
2023-02-16T10:53:54.574Z,33.00
2023-02-16T10:56:40.518Z,38.93
2023-02-16T10:59:16.508Z,37.73
2023-02-16T11:01:46.756Z,31.90
2023-02-16T11:04:29.782Z,36.73
2023-02-16T11:07:24.472Z,30.77
2023-02-16T11:09:56.014Z,38.13
2023-02-16T11:12:30.988Z,37.33
2023-02-16T11:15:06.509Z,36.40
2023-02-16T11:17:52.616Z,37.97
2023-02-16T11:20:45.784Z,33.17
2023-02-16T11:23:21.532Z,35.87
2023-02-16T11:26:21.114Z,30.97
2023-02-16T11:28:49.955Z,35.13
2023-02-16T11:31:30.355Z,33.23
2023-02-16T11:34:29.341Z,28.00
2023-02-16T11:37:26.907Z,33.50
2023-02-16T11:39:59.651Z,33.13
2023-02-16T11:42:40.835Z,28.60
2023-02-16T11:45:09.260Z,39.27
2023-02-16T11:47:39.604Z,29.63
2023-02-16T11:50:28.467Z,29.93
2023-02-16T11:53:13.296Z,29.00
2023-02-16T11:55:48.132Z,27.47
2023-02-16T11:58:22.728Z,28.23
2023-02-16T12:00:52.476Z,27.90
2023-02-16T12:03:30.488Z,34.23
2023-02-16T12:06:22.627Z,29.70
2023-02-16T12:09:00.521Z,28.23
2023-02-16T12:11:54.526Z,28.50
2023-02-16T12:14:36.522Z,31.00
2023-02-16T12:17:18.937Z,34.40
2023-02-16T12:19:48.333Z,29.77
2023-02-16T12:22:53.802Z,29.70
2023-02-16T12:25:24.838Z,28.83
2023-02-16T12:28:35.057Z,30.70
2023-02-16T12:31:17.196Z,36.93
2023-02-16T12:34:14.653Z,31.70
2023-02-16T12:36:52.994Z,33.03
2023-02-16T12:39:25.256Z,38.57
2023-02-16T12:42:32.663Z,32.97
2023-02-16T12:45:04.804Z,35.23
2023-02-16T12:47:52.564Z,31.20
2023-02-16T12:50:24.186Z,32.53
2023-02-16T12:53:18.727Z,34.00
2023-02-16T12:55:52.730Z,33.70
2023-02-16T12:58:31.307Z,31.67
2023-02-16T13:01:25.560Z,35.00
2023-02-16T13:03:57.613Z,32.70
2023-02-16T13:07:05.376Z,31.90
2023-02-16T13:09:41.838Z,38.03
2023-02-16T13:12:27.506Z,42.03
2023-02-16T13:15:10.573Z,35.37
2023-02-16T13:17:43.115Z,40.27
2023-02-16T13:20:16.852Z,41.53
2023-02-16T13:23:21.006Z,40.83
2023-02-16T13:26:04.824Z,46.03
2023-02-16T13:29:14.753Z,48.00
2023-02-16T13:31:56.230Z,39.20
2023-02-16T13:34:55.266Z,41.87
2023-02-16T13:37:42.305Z,41.77
2023-02-16T13:40:34.060Z,45.60
2023-02-16T13:43:22.776Z,46.80
2023-02-16T13:45:54.395Z,39.73
2023-02-16T13:48:25.867Z,41.70
2023-02-16T13:51:05.122Z,42.70
2023-02-16T13:53:38.690Z,39.67
2023-02-16T13:56:28.861Z,39.00
2023-02-16T13:59:19.369Z,39.17
2023-02-16T14:01:47.828Z,43.33
2023-02-16T14:04:23.787Z,38.73
2023-02-16T14:07:22.339Z,44.70
2023-02-16T14:09:49.758Z,42.33
2023-02-16T14:12:27.124Z,40.37
2023-02-16T14:14:53.820Z,35.90
2023-02-16T14:17:23.255Z,36.50
2023-02-16T14:20:15.051Z,34.40
2023-02-16T14:23:00.292Z,28.70
2023-02-16T14:25:30.916Z,32.03
2023-02-16T14:28:29.332Z,36.93
2023-02-16T14:31:00.530Z,38.43
2023-02-16T14:33:50.680Z,49.17
2023-02-16T14:36:26.299Z,36.07
2023-02-16T14:38:58.403Z,33.80
2023-02-16T14:41:32.420Z,43.57
2023-02-16T14:43:59.095Z,32.87
2023-02-16T14:46:49.425Z,55.43
2023-02-16T14:49:55.207Z,40.47
2023-02-16T14:52:47.117Z,47.70
2023-02-16T14:55:23.466Z,32.90
2023-02-16T14:58:15.715Z,37.03
2023-02-16T15:01:13.003Z,32.67
2023-02-16T15:03:46.285Z,31.00
2023-02-16T15:06:41.517Z,33.60
2023-02-16T15:09:15.866Z,31.87
2023-02-16T15:12:11.165Z,31.23
2023-02-16T15:14:45.547Z,34.13
2023-02-16T15:17:26.935Z,32.00
2023-02-16T15:19:55.548Z,29.90
2023-02-16T15:22:24.879Z,30.10
2023-02-16T15:25:16.825Z,31.87
2023-02-16T15:27:53.894Z,31.60
2023-02-16T15:30:22.489Z,38.33
2023-02-16T15:32:58.600Z,39.20
2023-02-16T15:35:30.794Z,33.77
2023-02-16T15:40:51.372Z,28.20
2023-02-16T15:43:30.945Z,27.97
2023-02-16T15:45:59.375Z,28.60
2023-02-16T15:48:31.988Z,34.53
2023-02-16T15:51:07.966Z,28.13
2023-02-16T15:53:58.433Z,30.20
2023-02-16T15:56:34.036Z,37.23
2023-02-16T15:59:04.339Z,23.80
2023-02-16T16:01:33.659Z,21.73
2023-02-16T16:04:20.367Z,27.80
2023-02-16T16:06:48.822Z,23.97
2023-02-16T16:09:35.532Z,23.43
2023-02-16T16:12:05.914Z,28.70
2023-02-16T16:14:39.678Z,25.27
2023-02-16T16:17:12.326Z,29.83
2023-02-16T16:19:39.414Z,27.43
2023-02-16T16:22:31.839Z,18.33
2023-02-16T16:24:59.356Z,24.23
2023-02-16T16:27:36.589Z,19.53
2023-02-16T16:30:26.571Z,21.40
2023-02-16T16:33:12.993Z,17.87
2023-02-16T16:35:49.645Z,22.63
2023-02-16T16:40:54.781Z,24.10
2023-02-16T16:43:26.302Z,23.23
2023-02-16T16:46:11.760Z,20.57
2023-02-16T16:48:44.313Z,19.70
2023-02-16T16:51:16.729Z,14.00
2023-02-16T16:53:53.677Z,17.83
2023-02-16T16:56:21.611Z,15.07
2023-02-16T16:58:52.832Z,16.87
2023-02-16T17:01:20.987Z,18.70
2023-02-16T17:03:47.742Z,16.30
2023-02-16T17:06:14.605Z,18.33
2023-02-16T17:08:42.025Z,16.60
2023-02-16T17:11:26.316Z,15.40
2023-02-16T17:13:54.853Z,16.33
2023-02-16T17:16:36.270Z,17.30
2023-02-16T17:19:03.726Z,16.20
2023-02-16T17:21:30.526Z,17.57
2023-02-16T17:23:57.272Z,14.80
2023-02-16T17:26:24.170Z,14.60
2023-02-16T17:28:50.960Z,14.00
2023-02-16T17:31:17.848Z,13.77
2023-02-16T17:33:45.074Z,16.67
2023-02-16T17:36:15.152Z,17.13
2023-02-16T17:38:42.270Z,13.20
2023-02-16T17:41:25.350Z,17.50
2023-02-16T17:43:52.866Z,14.70
2023-02-16T17:46:21.515Z,22.43
2023-02-16T17:48:51.508Z,17.97
2023-02-16T17:51:20.488Z,19.47
2023-02-16T17:53:47.259Z,14.63
2023-02-16T17:56:16.141Z,13.87
2023-02-16T17:58:43.416Z,15.83
2023-02-16T18:01:15.365Z,14.73
2023-02-16T18:03:42.136Z,22.53
2023-02-16T18:06:18.714Z,16.07
2023-02-16T18:08:45.659Z,14.97
2023-02-16T18:11:12.679Z,13.67
2023-02-16T18:13:39.950Z,16.37
2023-02-16T18:16:08.250Z,17.30
2023-02-16T18:18:39.135Z,17.10
2023-02-16T18:21:06.541Z,18.13
2023-02-16T18:23:33.412Z,20.90
2023-02-16T18:26:00.164Z,17.30
2023-02-16T18:28:30.830Z,14.00
2023-02-16T18:30:58.528Z,21.13
2023-02-16T18:33:25.891Z,13.03
2023-02-16T18:35:55.302Z,15.80
2023-02-16T19:20:36.271Z,20.07
2023-02-16T19:23:02.997Z,13.83
2023-02-16T19:25:29.712Z,24.17
2023-02-16T19:27:56.648Z,19.87
2023-02-16T19:30:24.298Z,20.80
2023-02-16T19:32:51.295Z,22.27
2023-02-16T19:35:18.128Z,16.57
2023-02-16T19:37:44.947Z,21.37
2023-02-16T19:40:12.596Z,24.00
2023-02-16T19:42:39.371Z,28.87
2023-02-16T19:45:06.502Z,20.07
2023-02-16T19:47:33.353Z,17.63
2023-02-16T19:50:00.299Z,25.20
2023-02-16T19:52:27.105Z,20.50
2023-02-16T19:54:53.793Z,28.13
2023-02-16T19:57:21.097Z,18.43
2023-02-16T19:59:47.841Z,19.77
2023-02-16T20:02:15.609Z,17.33
2023-02-16T20:04:43.528Z,19.33
2023-02-16T20:07:10.362Z,17.50
2023-02-16T20:09:37.476Z,17.63
2023-02-16T20:12:05.047Z,26.47
2023-02-16T20:14:31.910Z,18.67
2023-02-16T20:16:58.700Z,19.90
2023-02-16T20:19:25.398Z,21.50
2023-02-16T20:21:52.121Z,22.20
2023-02-16T20:24:18.880Z,19.33
2023-02-16T20:26:46.903Z,18.77
2023-02-16T20:29:17.905Z,20.13
2023-02-16T20:31:53.372Z,29.47
2023-02-16T20:34:21.059Z,21.67
2023-02-16T20:36:48.338Z,18.63
2023-02-16T20:39:15.297Z,16.80
2023-02-16T20:41:42.267Z,24.20
2023-02-16T20:44:10.340Z,23.67
2023-02-16T20:46:38.077Z,24.57
2023-02-16T20:49:06.700Z,20.23
2023-02-16T20:51:34.420Z,24.10
2023-02-16T20:54:02.209Z,26.53
2023-02-16T20:56:29.342Z,31.77
2023-02-16T20:58:57.642Z,23.20
2023-02-16T21:01:31.187Z,26.40
2023-02-16T21:03:59.385Z,27.03
2023-02-16T21:06:27.453Z,30.80
2023-02-16T21:08:54.280Z,33.33
2023-02-16T21:11:21.463Z,21.20
2023-02-16T21:13:48.469Z,28.80
2023-02-16T21:16:15.735Z,23.83
2023-02-16T21:18:43.230Z,21.40
2023-02-16T21:21:15.504Z,32.07
2023-02-16T21:23:49.132Z,27.17
2023-02-16T21:26:18.231Z,26.40
2023-02-16T21:28:45.419Z,22.80
2023-02-16T21:31:15.367Z,29.87
2023-02-16T21:33:42.598Z,21.70
2023-02-16T21:36:15.906Z,27.07
2023-02-16T21:38:43.315Z,29.70
2023-02-16T21:41:26.037Z,30.73
2023-02-16T21:44:08.802Z,25.17
2023-02-16T21:46:38.650Z,21.03
2023-02-16T21:49:12.283Z,21.03
2023-02-16T21:51:40.634Z,20.87
2023-02-16T21:54:10.629Z,25.70
2023-02-16T21:56:39.611Z,28.80
2023-02-16T21:59:08.787Z,24.70
2023-02-16T22:01:39.024Z,22.80
2023-02-16T22:04:06.373Z,25.07
2023-02-16T22:06:37.568Z,26.60
2023-02-16T22:09:08.027Z,23.37
2023-02-16T22:11:35.018Z,24.90
2023-02-16T22:14:02.281Z,21.33
2023-02-16T22:16:30.843Z,22.03
2023-02-16T22:18:59.801Z,25.43
2023-02-16T22:21:27.888Z,21.57
2023-02-16T22:23:54.723Z,27.17
2023-02-16T22:26:26.474Z,24.60
2023-02-16T22:28:54.297Z,24.10
2023-02-16T22:31:23.239Z,25.07
2023-02-16T22:33:56.386Z,27.90
2023-02-16T22:36:23.260Z,20.90
2023-02-16T22:38:50.132Z,17.20
2023-02-16T22:41:16.818Z,20.53
2023-02-16T22:43:43.586Z,18.00
2023-02-16T22:46:15.021Z,22.50
2023-02-16T22:48:42.796Z,21.80
2023-02-16T22:51:12.573Z,21.43
2023-02-16T22:53:40.968Z,20.73
2023-02-16T22:56:09.934Z,18.97
2023-02-16T22:58:36.745Z,23.47
2023-02-16T23:01:04.298Z,19.73
2023-02-16T23:03:31.901Z,18.13
2023-02-16T23:05:58.606Z,17.30
2023-02-16T23:08:25.303Z,17.90
2023-02-16T23:11:01.059Z,16.70
2023-02-16T23:13:29.730Z,15.57
2023-02-16T23:16:05.733Z,18.50
2023-02-16T23:18:32.800Z,16.40
2023-02-16T23:21:20.438Z,19.33
2023-02-16T23:23:48.685Z,18.90
2023-02-16T23:26:15.828Z,15.00
2023-02-16T23:28:43.817Z,19.47
2023-02-16T23:31:12.642Z,18.10
2023-02-16T23:33:39.863Z,15.07
2023-02-16T23:36:07.280Z,18.43
2023-02-16T23:38:34.218Z,13.77
2023-02-16T23:41:06.629Z,13.40
2023-02-16T23:43:34.016Z,19.30
2023-02-16T23:46:01.644Z,15.47
2023-02-16T23:48:29.421Z,14.77
2023-02-16T23:50:56.781Z,13.50
2023-02-16T23:53:25.745Z,15.10
2023-02-16T23:56:06.040Z,12.57
2023-02-16T23:58:36.315Z,11.33
